Time;durP1;ratioP1;P1;durP2;ratioP2;P2;SDS_P1;SDS_P2;PMS_P1;PMS_P2;Temp;Humidity;BMP_temperature;BMP_pressure;BME280_temperature;BME280_humidity;BME280_pressure;Samples;Min_cycle;Max_cycle;Signal;HPM_P1;HPM_P2
2022/10/16 00:01:24;;;;;;;7.80;1.52;;;16.50;99.90;;;;;;4975531;28;20026;-69
2022/10/16 00:03:50;;;;;;;2.65;1.48;;;16.60;99.90;;;;;;4993018;28;20561;-70
2022/10/16 00:06:18;;;;;;;3.17;0.98;;;16.50;99.90;;;;;;4993295;28;20046;-69
2022/10/16 00:08:44;;;;;;;2.90;1.17;;;16.50;99.90;;;;;;4993048;28;20040;-70
2022/10/16 00:11:21;;;;;;;2.53;1.00;;;16.50;99.90;;;;;;4993055;28;20038;-70
2022/10/16 00:13:50;;;;;;;2.78;1.30;;;16.50;99.90;;;;;;4975566;28;20034;-70
2022/10/16 00:16:16;;;;;;;1.65;0.85;;;16.50;99.90;;;;;;4993092;28;20026;-70
2022/10/16 00:18:43;;;;;;;2.03;1.08;;;16.40;99.90;;;;;;4959304;28;20042;-69
2022/10/16 00:21:13;;;;;;;3.60;1.38;;;16.40;99.90;;;;;;4992810;28;20117;-69
2022/10/16 00:23:40;;;;;;;3.53;1.98;;;16.30;99.90;;;;;;4992657;28;20561;-70
2022/10/16 00:26:11;;;;;;;1.60;1.00;;;16.20;99.90;;;;;;4993042;28;20119;-70
2022/10/16 00:28:37;;;;;;;2.25;1.23;;;16.30;99.90;;;;;;4992841;28;20494;-70
2022/10/16 00:31:10;;;;;;;1.95;1.15;;;16.30;99.90;;;;;;4975193;28;20034;-69
2022/10/16 00:33:39;;;;;;;5.60;1.70;;;16.20;99.90;;;;;;4975296;28;20022;-70
2022/10/16 00:36:07;;;;;;;3.80;2.10;;;16.20;99.90;;;;;;4992583;28;20022;-69
2022/10/16 00:38:33;;;;;;;2.42;1.27;;;16.10;99.90;;;;;;4975090;28;20034;-70
2022/10/16 00:40:59;;;;;;;2.33;1.20;;;16.10;99.90;;;;;;4992707;28;20029;-69
2022/10/16 00:43:54;;;;;;;2.40;1.50;;;16.10;99.90;;;;;;4958680;28;20033;-69
2022/10/16 00:46:23;;;;;;;3.05;1.58;;;16.10;99.90;;;;;;4992365;28;20505;-70
2022/10/16 00:49:11;;;;;;;6.05;1.52;;;16.00;99.90;;;;;;4991066;28;20057;-69
2022/10/16 00:51:45;;;;;;;9.43;2.05;;;16.00;99.90;;;;;;4992493;28;20058;-69
2022/10/16 00:54:28;;;;;;;3.83;1.67;;;16.00;99.90;;;;;;4974935;28;20022;-70
2022/10/16 00:56:56;;;;;;;1.52;0.90;;;16.00;99.90;;;;;;4975570;28;20066;-71
2022/10/16 00:59:40;;;;;;;3.88;1.38;;;16.00;99.90;;;;;;4975120;28;20681;-71
2022/10/16 01:02:11;;;;;;;7.68;1.95;;;16.00;99.90;;;;;;4977653;28;20033;-68
2022/10/16 01:04:44;;;;;;;2.17;1.20;;;15.90;99.90;;;;;;4982346;28;20022;-69
2022/10/16 01:07:56;;;;;;;3.17;1.25;;;15.90;99.90;;;;;;4984823;28;20057;-68
2022/10/16 01:10:27;;;;;;;;;;;16.00;99.90;;;;;;4983849;28;20030;-69
2022/10/16 01:13:24;;;;;;;1.98;0.90;;;16.00;99.90;;;;;;5010840;28;20376;-68
2022/10/16 01:16:07;;;;;;;1.52;1.17;;;16.00;99.90;;;;;;4998874;28;20034;-69
2022/10/16 01:18:51;;;;;;;2.38;1.35;;;16.00;99.90;;;;;;4991634;28;20106;-69
2022/10/16 01:21:34;;;;;;;3.85;2.08;;;16.00;99.90;;;;;;4975476;28;20137;-69
2022/10/16 01:24:31;;;;;;;1.08;0.93;;;16.10;99.90;;;;;;4983261;28;20382;-68
2022/10/16 01:27:14;;;;;;;1.80;1.02;;;16.10;99.90;;;;;;4996297;28;20432;-69
2022/10/16 01:30:04;;;;;;;1.48;1.00;;;16.20;99.90;;;;;;5011204;28;20038;-69
2022/10/16 01:32:54;;;;;;;3.55;1.58;;;16.20;99.90;;;;;;4993143;28;20172;-69
2022/10/16 01:35:38;;;;;;;1.58;1.13;;;16.30;99.90;;;;;;5011217;28;20509;-69
2022/10/16 01:38:19;;;;;;;4.60;1.60;;;16.30;99.90;;;;;;5011134;28;20072;-69
2022/10/16 01:40:52;;;;;;;3.10;1.63;;;16.20;99.90;;;;;;4989581;28;20065;-68
2022/10/16 01:43:26;;;;;;;4.40;1.38;;;16.20;99.90;;;;;;4957841;28;20026;-69
2022/10/16 01:45:53;;;;;;;2.67;1.40;;;16.20;99.90;;;;;;4974514;28;20025;-69
2022/10/16 01:48:21;;;;;;;6.45;1.52;;;16.20;99.90;;;;;;4991160;28;20030;-68
2022/10/16 01:51:02;;;;;;;4.18;1.70;;;16.40;99.90;;;;;;4991304;28;20072;-69
2022/10/16 01:53:29;;;;;;;2.33;0.82;;;16.40;99.90;;;;;;4974516;28;20034;-69
2022/10/16 01:55:58;;;;;;;2.42;1.13;;;16.30;99.90;;;;;;4974233;28;20025;-69
2022/10/16 01:58:27;;;;;;;5.45;1.77;;;16.30;99.90;;;;;;4958153;28;20104;-69
2022/10/16 02:00:55;;;;;;;4.00;1.65;;;16.20;99.90;;;;;;4974378;28;20031;-69
2022/10/16 02:03:21;;;;;;;3.20;1.38;;;16.10;99.90;;;;;;4957036;28;20022;-69
2022/10/16 02:05:55;;;;;;;2.45;1.13;;;16.10;99.90;;;;;;4975314;28;20026;-69
2022/10/16 02:08:23;;;;;;;2.15;1.02;;;16.00;99.90;;;;;;5010865;28;20030;-69
2022/10/16 02:10:50;;;;;;;3.60;1.48;;;16.00;99.90;;;;;;5010714;28;20059;-69
2022/10/16 02:13:38;;;;;;;2.90;1.45;;;16.00;99.90;;;;;;5010310;28;20068;-69
2022/10/16 02:16:04;;;;;;;4.10;1.38;;;15.90;99.90;;;;;;4994762;28;20030;-69
2022/10/16 02:18:30;;;;;;;2.65;1.42;;;16.00;99.90;;;;;;5010561;28;20374;-69
2022/10/16 02:21:15;;;;;;;9.63;1.70;;;16.00;99.90;;;;;;5010774;28;20022;-69
2022/10/16 02:24:18;;;;;;;1.75;1.20;;;16.00;99.90;;;;;;5010618;28;20058;-69
2022/10/16 02:26:49;;;;;;;3.22;1.63;;;16.00;99.90;;;;;;5000916;28;20145;-69
2022/10/16 02:29:21;;;;;;;3.17;2.47;;;16.00;99.90;;;;;;4980476;28;20030;-69
2022/10/16 02:31:53;;;;;;;3.00;1.23;;;16.00;99.90;;;;;;4997183;28;20030;-69
2022/10/16 02:34:22;;;;;;;1.95;1.00;;;15.90;99.90;;;;;;4996717;28;20036;-69
2022/10/16 02:36:50;;;;;;;4.47;1.67;;;16.00;99.90;;;;;;4996630;28;20393;-69
2022/10/16 02:39:18;;;;;;;1.40;1.08;;;16.00;99.90;;;;;;4996684;28;20486;-69
2022/10/16 02:41:43;;;;;;;1.70;0.95;;;16.00;99.90;;;;;;5014098;28;20445;-69
2022/10/16 02:44:09;;;;;;;6.20;1.40;;;16.00;99.90;;;;;;4996353;28;20065;-69
2022/10/16 02:46:35;;;;;;;1.52;1.20;;;16.00;99.90;;;;;;5014067;28;20045;-69
2022/10/16 02:49:00;;;;;;;4.15;1.40;;;16.00;99.90;;;;;;5013714;28;20095;-69
2022/10/16 02:51:26;;;;;;;2.22;0.93;;;16.00;99.90;;;;;;4996443;28;20490;-69
2022/10/16 02:53:52;;;;;;;6.75;1.30;;;15.90;99.90;;;;;;4996058;28;20033;-69
2022/10/16 02:56:18;;;;;;;3.65;0.93;;;15.90;99.90;;;;;;5013863;28;20037;-69
2022/10/16 02:58:44;;;;;;;1.67;1.05;;;15.90;99.90;;;;;;5013691;28;20044;-69
2022/10/16 03:01:12;;;;;;;1.83;1.05;;;15.90;99.90;;;;;;4996102;28;20021;-69
2022/10/16 03:03:38;;;;;;;12.25;1.88;;;15.90;99.90;;;;;;4996074;28;20061;-69
2022/10/16 03:06:04;;;;;;;5.78;1.00;;;15.90;99.90;;;;;;4996048;28;20055;-69
2022/10/16 03:08:30;;;;;;;1.20;0.77;;;16.00;99.90;;;;;;4995987;28;20434;-69
2022/10/16 03:10:55;;;;;;;3.50;0.90;;;16.00;99.90;;;;;;4996091;28;20190;-69
2022/10/16 03:13:21;;;;;;;2.10;1.00;;;16.00;99.90;;;;;;5013189;28;20092;-69
2022/10/16 03:15:47;;;;;;;1.95;0.98;;;16.00;99.90;;;;;;4983549;28;20038;-69
2022/10/16 03:18:13;;;;;;;1.65;1.17;;;16.00;99.90;;;;;;4993621;28;20037;-69
2022/10/16 03:20:39;;;;;;;6.70;1.35;;;15.90;99.90;;;;;;4960227;28;20109;-69
2022/10/16 03:23:04;;;;;;;2.45;1.20;;;15.90;99.90;;;;;;4976143;28;20479;-69
2022/10/16 03:25:30;;;;;;;2.25;1.00;;;15.90;99.90;;;;;;4993812;28;20501;-69
2022/10/16 03:27:56;;;;;;;1.80;1.05;;;15.90;99.90;;;;;;4993332;28;20041;-69
2022/10/16 03:30:21;;;;;;;7.95;1.65;;;15.80;99.90;;;;;;4976159;28;20057;-69
2022/10/16 03:32:47;;;;;;;1.35;0.88;;;15.80;99.90;;;;;;4993163;28;20034;-69
2022/10/16 03:35:13;;;;;;;1.98;1.08;;;15.80;99.90;;;;;;4993516;28;20068;-70
2022/10/16 03:37:39;;;;;;;7.00;1.10;;;15.80;99.90;;;;;;4959921;28;20037;-70
2022/10/16 03:40:05;;;;;;;2.33;1.33;;;15.80;99.90;;;;;;4978022;28;20382;-69
2022/10/16 03:42:31;;;;;;;1.92;1.00;;;15.80;99.90;;;;;;5012694;28;20445;-69
2022/10/16 03:44:56;;;;;;;3.80;1.67;;;15.80;99.90;;;;;;5012830;28;20041;-69
2022/10/16 03:47:23;;;;;;;1.95;1.00;;;15.80;99.90;;;;;;5012844;28;20044;-70
2022/10/16 03:49:49;;;;;;;2.60;1.60;;;15.80;99.90;;;;;;5012646;28;20069;-69
2022/10/16 03:52:15;;;;;;;0.90;0.75;;;15.80;99.90;;;;;;4995019;28;20112;-70
2022/10/16 03:54:41;;;;;;;1.98;1.40;;;15.80;99.90;;;;;;5012765;28;20479;-69
2022/10/16 03:57:07;;;;;;;5.55;1.30;;;15.90;99.90;;;;;;5012866;28;20113;-69
2022/10/16 03:59:32;;;;;;;1.40;0.98;;;15.90;99.90;;;;;;4994942;28;20030;-70
2022/10/16 04:01:58;;;;;;;5.38;1.00;;;15.90;99.90;;;;;;5012521;28;20116;-69
2022/10/16 04:04:24;;;;;;;13.88;1.75;;;16.00;99.90;;;;;;5011958;28;20034;-70
2022/10/16 04:06:51;;;;;;;8.27;1.27;;;16.10;99.90;;;;;;4995245;28;20037;-69
2022/10/16 04:09:16;;;;;;;1.67;1.08;;;16.20;99.90;;;;;;4994901;28;20030;-69
2022/10/16 04:11:42;;;;;;;0.98;0.65;;;16.20;99.90;;;;;;5012279;28;20695;-70
2022/10/16 04:14:08;;;;;;;1.92;1.08;;;16.10;99.90;;;;;;5011706;28;20109;-70
2022/10/16 04:16:34;;;;;;;1.33;0.82;;;16.10;99.90;;;;;;4993538;28;20026;-69
2022/10/16 04:18:59;;;;;;;1.45;0.77;;;16.10;99.90;;;;;;4992464;28;20105;-69
2022/10/16 04:21:25;;;;;;;3.60;1.63;;;16.10;99.90;;;;;;4992720;28;20549;-69
2022/10/16 04:23:51;;;;;;;1.13;0.73;;;16.20;99.90;;;;;;4974892;28;20030;-69
2022/10/16 04:26:16;;;;;;;2.25;1.10;;;16.20;99.90;;;;;;4992900;28;20422;-69
2022/10/16 04:28:43;;;;;;;4.50;0.93;;;16.20;99.90;;;;;;4974803;28;20034;-69
2022/10/16 04:31:09;;;;;;;1.73;0.82;;;16.30;99.90;;;;;;4974972;28;20389;-69
2022/10/16 04:33:34;;;;;;;3.15;1.20;;;16.20;99.90;;;;;;4974854;28;20124;-69
2022/10/16 04:36:03;;;;;;;1.42;0.75;;;16.20;99.90;;;;;;4992140;28;20113;-71
2022/10/16 04:38:29;;;;;;;4.68;1.17;;;16.10;99.90;;;;;;4975113;28;20038;-70
2022/10/16 04:40:55;;;;;;;1.20;0.80;;;16.00;99.90;;;;;;4992400;28;20429;-70
2022/10/16 04:43:21;;;;;;;2.80;0.75;;;15.90;99.90;;;;;;4992365;28;20036;-71
2022/10/16 04:45:47;;;;;;;1.50;0.90;;;15.90;99.90;;;;;;4992248;28;20030;-71
2022/10/16 04:48:13;;;;;;;7.25;1.10;;;15.90;99.90;;;;;;4973984;28;20034;-69
2022/10/16 04:50:38;;;;;;;4.60;0.82;;;15.90;99.90;;;;;;4974645;28;20058;-69
2022/10/16 04:53:05;;;;;;;1.02;0.63;;;15.90;99.90;;;;;;4991794;28;20034;-68
2022/10/16 04:55:31;;;;;;;3.38;0.82;;;15.80;99.90;;;;;;4991989;28;20026;-69
2022/10/16 04:57:56;;;;;;;1.88;0.93;;;15.80;99.90;;;;;;4991839;28;20526;-69
2022/10/16 05:00:22;;;;;;;4.70;1.15;;;15.80;99.90;;;;;;4991835;28;20046;-68
2022/10/16 05:02:50;;;;;;;3.38;1.35;;;15.80;99.90;;;;;;4991673;28;20034;-68
2022/10/16 05:05:16;;;;;;;2.00;0.73;;;15.80;99.90;;;;;;4974569;28;20030;-69
2022/10/16 05:07:41;;;;;;;1.58;0.73;;;15.80;99.90;;;;;;4991865;28;20394;-70
2022/10/16 05:10:07;;;;;;;1.48;0.80;;;15.70;99.90;;;;;;4991945;28;20030;-71
2022/10/16 05:12:34;;;;;;;1.15;0.75;;;15.80;99.90;;;;;;4991359;28;20038;-70
2022/10/16 05:14:59;;;;;;;3.00;0.80;;;15.80;99.90;;;;;;4980112;28;20026;-71
2022/10/16 05:17:26;;;;;;;5.53;1.52;;;15.70;99.90;;;;;;5011393;28;20030;-71
2022/10/16 05:19:52;;;;;;;2.90;0.70;;;15.80;99.90;;;;;;4961075;28;20057;-71
2022/10/16 05:22:18;;;;;;;1.48;1.00;;;15.70;99.90;;;;;;4986832;28;20042;-71
2022/10/16 05:24:44;;;;;;;1.67;0.90;;;15.70;99.90;;;;;;4973911;28;20034;-71
2022/10/16 05:27:11;;;;;;;1.45;0.93;;;15.70;99.90;;;;;;4976961;28;20037;-71
2022/10/16 05:29:36;;;;;;;5.05;0.93;;;15.70;99.90;;;;;;4993736;28;20057;-71
2022/10/16 05:32:02;;;;;;;1.10;0.80;;;15.70;99.90;;;;;;4993532;28;20085;-71
2022/10/16 05:34:28;;;;;;;2.35;1.02;;;15.70;99.90;;;;;;5010817;28;20418;-71
2022/10/16 05:36:54;;;;;;;0.65;0.63;;;15.70;99.90;;;;;;4993568;28;20489;-71
2022/10/16 05:39:20;;;;;;;9.82;1.17;;;15.70;99.90;;;;;;4977199;28;20389;-71
2022/10/16 05:41:46;;;;;;;1.30;0.82;;;15.70;99.90;;;;;;4993472;28;20091;-69
2022/10/16 05:44:11;;;;;;;2.05;1.13;;;15.80;99.90;;;;;;4973137;28;20500;-70
2022/10/16 05:46:37;;;;;;;0.95;0.70;;;15.80;99.90;;;;;;4999099;28;20034;-69
2022/10/16 05:49:03;;;;;;;0.90;0.70;;;15.80;99.90;;;;;;4935080;28;20149;-68
2022/10/16 05:51:29;;;;;;;3.25;0.88;;;15.80;99.90;;;;;;4991107;28;20390;-67
2022/10/16 05:53:54;;;;;;;1.33;1.15;;;15.90;99.90;;;;;;4982011;28;20023;-68
2022/10/16 05:56:20;;;;;;;1.52;0.80;;;15.90;99.90;;;;;;4972158;28;20045;-68
2022/10/16 05:58:46;;;;;;;2.38;1.17;;;15.90;99.90;;;;;;4983476;28;20026;-67
2022/10/16 06:01:16;;;;;;;1.90;1.05;;;16.00;99.90;;;;;;4982793;28;20026;-68
2022/10/16 06:03:42;;;;;;;1.00;0.52;;;16.00;99.90;;;;;;4989549;28;20034;-68
2022/10/16 06:06:17;;;;;;;1.88;1.05;;;16.10;99.90;;;;;;4994327;28;20108;-68
2022/10/16 06:08:45;;;;;;;2.28;1.30;;;16.10;99.90;;;;;;4992988;28;20108;-68
2022/10/16 06:11:19;;;;;;;2.05;0.93;;;16.10;99.90;;;;;;4984956;28;20026;-68
2022/10/16 06:13:49;;;;;;;2.25;1.92;;;16.20;99.90;;;;;;4974538;28;20406;-68
2022/10/16 06:16:15;;;;;;;1.60;0.98;;;16.20;99.90;;;;;;4974008;28;20475;-68
2022/10/16 06:18:41;;;;;;;1.55;0.70;;;16.20;99.90;;;;;;4956664;28;20452;-67
2022/10/16 06:21:18;;;;;;;5.07;1.02;;;16.20;99.90;;;;;;4965113;28;20046;-68
2022/10/16 06:23:48;;;;;;;4.95;1.48;;;16.40;99.90;;;;;;4993758;28;20060;-67
2022/10/16 06:26:18;;;;;;;1.42;0.90;;;16.40;99.90;;;;;;4994071;28;20022;-68
2022/10/16 06:28:44;;;;;;;2.17;0.98;;;16.50;99.90;;;;;;4993747;28;20034;-67
2022/10/16 06:31:11;;;;;;;1.08;0.75;;;16.60;99.90;;;;;;4993525;28;20498;-67
2022/10/16 06:33:38;;;;;;;1.77;1.05;;;16.50;99.90;;;;;;4976274;28;20105;-68
2022/10/16 06:36:14;;;;;;;3.90;0.93;;;16.40;99.90;;;;;;4976356;28;20471;-68
2022/10/16 06:38:40;;;;;;;2.45;0.88;;;16.50;99.90;;;;;;4987827;28;20026;-67
2022/10/16 06:41:08;;;;;;;2.65;1.13;;;16.40;99.90;;;;;;4974971;28;20106;-67
2022/10/16 06:43:37;;;;;;;1.55;0.80;;;16.40;99.90;;;;;;4968204;28;20038;-67
2022/10/16 06:46:07;;;;;;;1.40;1.10;;;16.40;99.90;;;;;;4991530;28;20038;-68
2022/10/16 06:48:33;;;;;;;54.90;24.77;;;16.50;99.90;;;;;;4986831;28;20023;-68
2022/10/16 06:51:05;;;;;;;15.77;8.00;;;16.40;99.90;;;;;;4956645;28;20030;-66
2022/10/16 06:53:34;;;;;;;11.32;1.42;;;16.50;99.90;;;;;;4973692;28;20575;-65
2022/10/16 06:56:14;;;;;;;6.45;1.45;;;16.50;99.90;;;;;;4956469;28;20038;-66
2022/10/16 06:58:41;;;;;;;1.73;0.85;;;16.40;99.90;;;;;;4972559;28;20030;-66
2022/10/16 07:01:09;;;;;;;2.50;1.25;;;16.40;99.90;;;;;;4993472;28;20026;-66
2022/10/16 07:03:38;;;;;;;0.93;0.60;;;16.40;99.90;;;;;;4992743;28;20443;-66
2022/10/16 07:06:06;;;;;;;0.82;0.52;;;16.40;99.90;;;;;;4993188;28;20026;-68
2022/10/16 07:08:40;;;;;;;3.08;1.23;;;16.50;99.90;;;;;;4972689;28;20130;-67
2022/10/16 07:11:12;;;;;;;9.02;1.50;;;16.50;99.90;;;;;;4971861;28;20029;-68
2022/10/16 07:13:42;;;;;;;2.50;0.80;;;16.50;99.90;;;;;;4972354;28;20558;-68
2022/10/16 07:16:17;;;;;;;3.85;1.13;;;16.50;99.90;;;;;;4973532;28;20034;-68
2022/10/16 07:18:45;;;;;;;1.30;0.90;;;16.40;99.90;;;;;;4973401;28;20125;-67
2022/10/16 07:21:14;;;;;;;1.13;0.68;;;16.40;99.90;;;;;;4972176;28;20023;-68
2022/10/16 07:23:41;;;;;;;1.48;0.70;;;16.50;99.90;;;;;;4971750;28;20033;-68
2022/10/16 07:26:07;;;;;;;1.48;1.08;;;16.60;99.90;;;;;;4972430;28;20039;-68
2022/10/16 07:28:33;;;;;;;2.03;0.85;;;16.50;99.90;;;;;;4972066;28;20491;-68
2022/10/16 07:31:10;;;;;;;2.03;1.13;;;16.60;99.90;;;;;;4971988;28;20034;-68
2022/10/16 07:33:38;;;;;;;11.00;1.33;;;16.70;99.90;;;;;;4973160;28;20053;-69
2022/10/16 07:36:05;;;;;;;20.60;11.07;;;16.70;99.90;;;;;;4972045;28;20085;-71
2022/10/16 07:38:31;;;;;;;5.63;1.52;;;16.80;99.90;;;;;;4971913;28;20389;-68
2022/10/16 07:41:03;;;;;;;1.95;0.95;;;16.80;99.90;;;;;;4955452;28;20130;-67
2022/10/16 07:43:29;;;;;;;3.97;1.05;;;16.80;99.90;;;;;;4971795;28;20034;-67
2022/10/16 07:45:55;;;;;;;7.70;1.17;;;16.90;99.90;;;;;;4972376;28;20089;-67
2022/10/16 07:48:23;;;;;;;2.33;1.10;;;17.00;99.90;;;;;;4958721;28;20029;-66
2022/10/16 07:50:49;;;;;;;2.78;1.30;;;16.90;99.90;;;;;;4974794;28;20038;-68
2022/10/16 07:53:15;;;;;;;2.53;1.27;;;16.80;99.90;;;;;;4974106;28;20038;-68
2022/10/16 07:55:41;;;;;;;1.83;1.23;;;16.80;99.90;;;;;;4974880;28;20113;-67
2022/10/16 07:58:07;;;;;;;2.45;1.10;;;16.80;99.90;;;;;;4974573;28;20041;-67
2022/10/16 08:00:34;;;;;;;1.52;1.00;;;16.80;99.90;;;;;;4992508;28;20382;-66
2022/10/16 08:03:00;;;;;;;2.00;0.80;;;16.80;99.90;;;;;;4974642;28;20034;-67
2022/10/16 08:05:31;;;;;;;2.35;0.98;;;16.70;99.90;;;;;;4992170;28;20105;-67
2022/10/16 08:07:57;;;;;;;1.70;1.05;;;16.70;99.90;;;;;;4974680;28;20073;-67
2022/10/16 08:10:26;;;;;;;2.63;1.40;;;16.70;99.90;;;;;;4971110;28;20518;-68
2022/10/16 08:12:52;;;;;;;2.95;1.38;;;16.70;99.90;;;;;;4972505;28;20513;-68
2022/10/16 08:15:19;;;;;;;4.80;1.95;;;16.70;99.90;;;;;;4971098;28;20034;-68
2022/10/16 08:18:00;;;;;;;2.95;1.15;;;16.60;99.90;;;;;;4971016;28;20051;-67
2022/10/16 08:20:28;;;;;;;3.75;1.77;;;16.70;99.90;;;;;;4971290;28;20471;-68
2022/10/16 08:22:54;;;;;;;1.55;0.82;;;16.70;99.90;;;;;;4969533;28;20039;-68
2022/10/16 08:25:21;;;;;;;5.22;1.45;;;16.70;99.90;;;;;;4972573;28;20038;-68
2022/10/16 08:27:47;;;;;;;3.60;0.82;;;16.70;99.90;;;;;;4972172;28;20031;-68
2022/10/16 08:30:13;;;;;;;4.45;1.38;;;16.70;99.90;;;;;;4971044;28;20178;-68
2022/10/16 08:32:41;;;;;;;1.75;0.95;;;16.70;99.90;;;;;;4954444;28;20042;-68
2022/10/16 08:35:08;;;;;;;1.55;1.00;;;16.80;99.90;;;;;;4970723;28;20034;-68
2022/10/16 08:37:34;;;;;;;4.65;1.00;;;16.80;99.90;;;;;;4971885;28;20031;-69
2022/10/16 08:40:00;;;;;;;1.98;1.15;;;16.80;99.90;;;;;;4970688;28;20034;-69
2022/10/16 08:42:41;;;;;;;3.72;1.38;;;16.90;99.90;;;;;;4954708;28;20042;-68
2022/10/16 08:45:35;;;;;;;2.83;0.95;;;16.90;99.90;;;;;;4970416;28;20023;-66
2022/10/16 08:48:27;;;;;;;4.25;1.20;;;16.90;99.90;;;;;;4974209;28;20483;-68
2022/10/16 08:50:54;;;;;;;5.50;1.35;;;17.10;99.90;;;;;;4991424;28;20057;-68
2022/10/16 08:53:39;;;;;;;3.22;1.27;;;17.30;99.90;;;;;;4988796;28;20034;-68
2022/10/16 08:56:05;;;;;;;3.60;1.38;;;17.30;99.90;;;;;;4955486;28;20395;-69
2022/10/16 08:58:31;;;;;;;2.33;1.42;;;17.10;99.90;;;;;;4971842;28;20462;-70
2022/10/16 09:01:01;;;;;;;2.47;1.48;;;16.90;99.90;;;;;;4974187;28;20029;-69
2022/10/16 09:04:32;;;;;;;4.55;1.50;;;16.80;99.90;;;;;;4974322;28;20059;-68
2022/10/16 09:07:09;;;;;;;1.67;1.08;;;16.50;99.90;;;;;;4960462;28;20050;-69
2022/10/16 09:09:47;;;;;;;2.03;0.98;;;16.40;99.90;;;;;;4948462;28;20130;-69
2022/10/16 09:12:51;;;;;;;2.33;0.82;;;16.40;99.90;;;;;;4953160;28;20043;-69
2022/10/16 09:15:36;;;;;;;7.07;1.33;;;16.60;99.90;;;;;;4976085;28;20496;-61
2022/10/16 09:18:15;;;;;;;3.13;1.58;;;16.90;99.90;;;;;;4940557;28;20035;-61
2022/10/16 09:21:05;;;;;;;6.03;1.77;;;17.20;99.90;;;;;;4972235;28;20498;-61
2022/10/16 09:23:36;;;;;;;2.83;1.63;;;17.20;99.90;;;;;;4954684;28;20038;-61
2022/10/16 09:26:04;;;;;;;1.60;1.10;;;17.20;99.90;;;;;;4972092;28;20035;-62
2022/10/16 09:28:30;;;;;;;7.15;1.70;;;17.20;99.90;;;;;;4955128;28;20105;-62
2022/10/16 09:30:56;;;;;;;2.55;1.35;;;17.30;99.90;;;;;;4954966;28;20475;-62
2022/10/16 09:33:33;;;;;;;1.80;1.17;;;17.40;99.90;;;;;;4971706;28;20046;-61
2022/10/16 09:35:59;;;;;;;4.03;1.30;;;17.50;99.90;;;;;;4955365;28;20069;-61
2022/10/16 09:38:31;;;;;;;3.17;1.40;;;17.60;99.90;;;;;;4957597;28;20018;-61
2022/10/16 09:41:19;;;;;;;1.73;1.00;;;17.70;99.90;;;;;;4974212;28;20034;-61
2022/10/16 09:43:56;;;;;;;7.65;1.60;;;17.90;99.90;;;;;;4976349;28;20061;-61
2022/10/16 09:46:29;;;;;;;3.55;1.70;;;18.00;99.90;;;;;;4990835;28;20039;-61
2022/10/16 09:49:18;;;;;;;10.93;1.70;;;18.10;99.90;;;;;;4989757;28;20113;-61
2022/10/16 09:51:45;;;;;;;2.30;1.20;;;18.10;99.90;;;;;;4990337;28;20088;-61
2022/10/16 09:54:20;;;;;;;2.50;1.10;;;18.10;99.90;;;;;;4988172;28;20112;-61
2022/10/16 09:56:49;;;;;;;1.83;1.17;;;18.10;99.90;;;;;;4981229;28;20061;-60
2022/10/16 09:59:23;;;;;;;2.20;1.27;;;18.20;99.90;;;;;;4991156;28;20033;-61
2022/10/16 10:01:54;;;;;;;1.70;1.13;;;18.30;99.90;;;;;;4991192;28;20030;-61
2022/10/16 10:04:23;;;;;;;1.55;1.08;;;18.40;99.90;;;;;;4973546;28;20030;-61
2022/10/16 10:06:56;;;;;;;2.13;1.27;;;18.40;99.90;;;;;;4973796;28;20054;-61
2022/10/16 10:09:39;;;;;;;3.75;1.48;;;18.50;99.90;;;;;;4973755;28;20479;-61
2022/10/16 10:12:17;;;;;;;4.40;1.25;;;18.60;99.90;;;;;;4973859;28;20034;-61
2022/10/16 10:14:49;;;;;;;3.83;1.20;;;18.80;99.90;;;;;;4990968;28;20058;-61
2022/10/16 10:17:19;;;;;;;1.35;0.95;;;18.90;99.90;;;;;;4973559;28;20446;-60
2022/10/16 10:19:52;;;;;;;7.85;1.70;;;19.00;99.90;;;;;;4988746;28;20133;-61
2022/10/16 10:22:34;;;;;;;2.70;1.52;;;19.50;99.90;;;;;;4979041;28;20034;-60
2022/10/16 10:25:12;;;;;;;2.85;1.30;;;19.80;99.90;;;;;;4980493;28;20030;-60
2022/10/16 10:28:06;;;;;;;7.32;1.42;;;19.60;99.90;;;;;;4981687;28;20121;-59
2022/10/16 10:30:54;;;;;;;5.63;1.08;;;20.20;99.90;;;;;;4977369;28;20118;-60
2022/10/16 10:33:51;;;;;;;4.78;2.72;;;20.20;99.90;;;;;;4965811;28;20040;-59
2022/10/16 10:36:38;;;;;;;1.40;0.95;;;20.30;99.90;;;;;;4974462;28;20101;-60
2022/10/16 10:39:31;;;;;;;1.80;0.88;;;20.60;99.90;;;;;;4986863;28;20144;-60
2022/10/16 10:42:39;;;;;;;2.78;1.23;;;20.30;99.90;;;;;;4975213;28;20090;-60
2022/10/16 10:45:38;;;;;;;1.33;0.65;;;20.50;99.90;;;;;;4965296;28;20501;-60
2022/10/16 10:48:41;;;;;;;3.55;0.95;;;20.20;99.90;;;;;;4961822;28;20117;-59
2022/10/16 10:51:47;;;;;;;1.70;0.82;;;20.00;99.90;;;;;;4967423;28;20059;-59
2022/10/16 10:54:36;;;;;;;6.30;1.23;;;20.30;99.90;;;;;;4990361;28;20105;-59
2022/10/16 10:57:21;;;;;;;1.08;0.85;;;20.90;99.90;;;;;;4993780;28;20037;-59
2022/10/16 11:00:00;;;;;;;2.28;1.33;;;21.60;99.90;;;;;;4977541;28;20026;-60
2022/10/16 11:02:48;;;;;;;1.60;0.60;;;22.40;99.90;;;;;;4993226;28;20034;-60
2022/10/16 11:05:33;;;;;;;1.80;0.65;;;22.10;99.90;;;;;;4976266;28;20077;-59
2022/10/16 11:08:08;;;;;;;2.70;1.00;;;22.10;99.90;;;;;;4975077;28;20034;-59
2022/10/16 11:10:54;;;;;;;1.92;0.95;;;23.00;99.90;;;;;;4957585;28;20213;-59
2022/10/16 11:13:37;;;;;;;2.83;0.90;;;22.90;99.90;;;;;;4940992;28;20479;-59
2022/10/16 11:16:37;;;;;;;1.40;0.70;;;23.00;99.90;;;;;;4974152;28;20043;-60
2022/10/16 11:19:22;;;;;;;1.95;0.65;;;23.70;99.90;;;;;;4956943;28;20061;-60
2022/10/16 11:22:06;;;;;;;1.85;0.82;;;25.40;99.90;;;;;;4974060;28;20478;-59
2022/10/16 11:25:02;;;;;;;2.20;0.65;;;26.30;99.90;;;;;;4965506;28;20069;-66
2022/10/16 11:28:03;;;;;;;1.95;1.17;;;26.60;99.90;;;;;;4974420;28;20034;-60
2022/10/16 11:30:31;;;;;;;;;;;26.90;99.90;;;;;;4974531;28;20031;-60
2022/10/16 11:33:09;;;;;;;1.98;0.68;;;26.90;99.90;;;;;;4957161;28;19917;-60
2022/10/16 11:35:49;;;;;;;1.25;0.70;;;25.20;99.90;;;;;;4974118;28;20109;-63
2022/10/16 11:39:00;;;;;;;0.82;0.60;;;27.20;99.90;;;;;;4974536;28;20030;-64
2022/10/16 11:42:20;;;;;;;3.33;0.90;;;26.10;99.90;;;;;;4993296;28;20038;-70
2022/10/16 11:45:06;;;;;;;1.73;0.80;;;27.30;99.90;;;;;;4990269;28;20045;-71
2022/10/16 11:47:45;;;;;;;2.03;0.85;;;25.90;99.90;;;;;;4976451;28;20026;-70
2022/10/16 11:50:20;;;;;;;1.10;0.73;;;25.50;99.90;;;;;;4976126;28;20038;-60
2022/10/16 11:53:38;;;;;;;1.35;1.00;;;26.20;99.90;;;;;;4975501;28;20402;-60
2022/10/16 11:56:05;;;;;;;1.80;1.00;;;24.30;99.90;;;;;;4993056;28;20554;-60
2022/10/16 11:59:00;;;;;;;2.08;0.68;;;23.70;99.90;;;;;;4992221;28;20474;-59
2022/10/16 12:01:42;;;;;;;2.40;0.98;;;23.80;99.90;;;;;;4993341;28;20491;-60
2022/10/16 12:04:27;;;;;;;1.73;0.73;;;23.70;99.90;;;;;;4976147;28;20030;-56
2022/10/16 12:07:18;;;;;;;1.27;0.70;;;23.70;99.90;;;;;;4976676;28;20390;-59
2022/10/16 12:09:44;;;;;;;2.17;0.63;;;23.40;99.90;;;;;;4975790;28;20065;-55
2022/10/16 12:12:35;;;;;;;5.60;1.00;;;22.50;99.90;;;;;;4992927;28;20064;-57
2022/10/16 12:15:31;;;;;;;1.40;0.70;;;22.70;99.90;;;;;;4992743;28;20668;-53
2022/10/16 12:17:56;;;;;;;1.20;0.68;;;22.00;99.90;;;;;;4992602;28;20671;-53
2022/10/16 12:20:36;;;;;;;0.77;0.50;;;21.90;99.90;;;;;;4975066;28;20030;-51
2022/10/16 12:23:06;;;;;;;2.38;1.20;;;21.80;99.90;;;;;;4975698;28;20434;-52
2022/10/16 12:25:45;;;;;;;4.15;1.30;;;21.50;99.90;;;;;;4992671;28;20077;-52
2022/10/16 12:28:14;;;;;;;5.45;1.00;;;21.30;99.90;;;;;;4976663;28;20037;-58
2022/10/16 12:30:42;;;;;;;2.95;1.10;;;21.10;99.90;;;;;;4992696;28;20080;-54
2022/10/16 12:33:42;;;;;;;1.17;0.77;;;21.10;99.90;;;;;;4974910;28;20483;-54
2022/10/16 12:36:31;;;;;;;2.07;1.20;;;21.20;99.90;;;;;;4992676;28;20026;-59
2022/10/16 12:38:56;;;;;;;1.58;0.70;;;21.40;99.90;;;;;;4991949;28;20379;-58
2022/10/16 12:41:31;;;;;;;2.25;1.33;;;21.30;99.90;;;;;;4992488;28;20060;-59
2022/10/16 12:44:00;;;;;;;3.40;1.30;;;21.10;99.90;;;;;;4958601;28;20026;-58
2022/10/16 12:46:29;;;;;;;4.18;0.80;;;21.20;99.90;;;;;;4975420;28;20038;-60
2022/10/16 12:49:13;;;;;;;5.82;0.82;;;21.30;99.90;;;;;;4989136;28;20088;-59
2022/10/16 12:51:41;;;;;;;1.45;0.98;;;21.40;99.90;;;;;;4972861;28;20049;-59
2022/10/16 12:54:34;;;;;;;2.85;1.40;;;21.50;99.90;;;;;;4955167;28;20034;-61
2022/10/16 12:57:31;;;;;;;3.22;1.20;;;21.80;99.90;;;;;;4956268;28;20041;-59
2022/10/16 13:00:25;;;;;;;2.78;1.20;;;21.70;99.90;;;;;;4972390;28;20065;-60
2022/10/16 13:03:41;;;;;;;3.92;0.95;;;21.70;99.90;;;;;;4955841;28;20050;-58
2022/10/16 13:06:12;;;;;;;1.77;0.65;;;21.70;99.90;;;;;;4972538;28;20394;-65
2022/10/16 13:09:01;;;;;;;1.52;0.93;;;21.70;99.90;;;;;;4976894;28;20437;-66
2022/10/16 13:12:06;;;;;;;1.77;1.02;;;21.70;99.90;;;;;;4991529;28;20037;-65
2022/10/16 13:15:00;;;;;;;2.55;0.70;;;21.60;99.90;;;;;;4976178;28;20140;-65
2022/10/16 13:18:11;;;;;;;5.80;0.70;;;21.50;99.90;;;;;;4974304;28;20089;-65
2022/10/16 13:21:16;;;;;;;1.48;0.90;;;21.40;99.90;;;;;;4991713;28;20037;-65
2022/10/16 13:24:16;;;;;;;0.55;0.50;;;21.30;99.90;;;;;;4991551;28;20030;-65